createdAt,value
2022-10-28T00:02:05.543Z,12.66
2022-10-28T00:04:32.311Z,12.72
2022-10-28T00:06:58.991Z,12.40
2022-10-28T00:09:25.666Z,12.64
2022-10-28T00:11:52.292Z,12.59
2022-10-28T00:14:18.978Z,12.54
2022-10-28T00:16:45.643Z,12.37
2022-10-28T00:19:14.214Z,12.41
2022-10-28T00:21:43.015Z,12.39
2022-10-28T00:24:11.487Z,12.46
2022-10-28T00:26:42.154Z,12.55
2022-10-28T00:29:11.576Z,12.54
2022-10-28T00:31:39.250Z,12.56
2022-10-28T00:34:11.018Z,12.67
2022-10-28T00:36:40.861Z,12.61
2022-10-28T00:39:16.831Z,12.58
2022-10-28T00:41:47.297Z,12.59
2022-10-28T00:44:51.626Z,12.56
2022-10-28T00:47:40.172Z,12.57
2022-10-28T00:50:45.015Z,12.58
2022-10-28T00:53:19.108Z,12.53
2022-10-28T00:55:47.527Z,12.57
2022-10-28T00:58:15.979Z,12.62
2022-10-28T01:00:42.896Z,12.63
2022-10-28T01:03:09.989Z,12.48
2022-10-28T01:05:40.838Z,12.73
2022-10-28T01:08:07.659Z,12.68
2022-10-28T01:10:46.320Z,12.64
2022-10-28T01:13:33.426Z,12.64
2022-10-28T01:16:47.683Z,12.74
2022-10-28T01:19:35.685Z,12.75
2022-10-28T01:22:37.627Z,12.71
2022-10-28T01:25:25.857Z,12.71
2022-10-28T01:28:08.018Z,12.66
2022-10-28T01:30:58.796Z,12.57
2022-10-28T01:33:35.658Z,12.49
2022-10-28T01:36:08.019Z,12.46
2022-10-28T01:38:48.715Z,12.41
2022-10-28T01:41:33.645Z,12.41
2022-10-28T01:44:05.963Z,12.48
2022-10-28T01:46:41.880Z,12.51
2022-10-28T01:49:23.130Z,12.61
2022-10-28T01:52:03.720Z,12.68
2022-10-28T01:54:33.901Z,12.59
2022-10-28T01:57:04.791Z,12.31
2022-10-28T01:59:34.391Z,12.43
2022-10-28T02:04:32.751Z,12.19
2022-10-28T02:07:00.992Z,12.27
2022-10-28T02:09:42.910Z,12.48
2022-10-28T02:12:26.566Z,12.53
2022-10-28T02:15:02.589Z,12.75
2022-10-28T02:17:56.661Z,12.79
2022-10-28T02:20:34.904Z,12.81
2022-10-28T02:23:18.651Z,12.77
2022-10-28T02:26:06.425Z,12.72
2022-10-28T02:28:42.939Z,12.49
2022-10-28T02:31:32.254Z,12.56
2022-10-28T02:34:03.666Z,12.53
2022-10-28T02:36:35.776Z,12.37
2022-10-28T02:39:06.270Z,12.43
2022-10-28T02:41:56.336Z,12.38
2022-10-28T02:44:31.252Z,12.29
2022-10-28T02:47:01.406Z,12.53
2022-10-28T02:49:32.112Z,12.56
2022-10-28T02:52:02.012Z,12.55
2022-10-28T02:54:35.703Z,12.68
2022-10-28T02:57:12.436Z,12.61
2022-10-28T02:59:40.471Z,12.46
2022-10-28T03:02:08.611Z,12.37
2022-10-28T03:04:35.398Z,12.63
2022-10-28T03:07:02.056Z,12.66
2022-10-28T03:09:28.690Z,12.70
2022-10-28T03:11:55.434Z,12.70
2022-10-28T03:14:22.313Z,12.61
2022-10-28T03:16:49.042Z,12.68
2022-10-28T03:19:15.665Z,12.68
2022-10-28T03:21:42.303Z,12.69
2022-10-28T03:24:08.993Z,12.65
2022-10-28T03:26:35.611Z,12.70
2022-10-28T03:29:02.289Z,12.75
2022-10-28T03:31:29.156Z,12.90
2022-10-28T03:33:56.031Z,12.91
2022-10-28T03:36:22.637Z,12.98
2022-10-28T03:38:49.321Z,12.88
2022-10-28T03:41:16.097Z,12.82
2022-10-28T03:43:42.824Z,12.93
2022-10-28T03:46:09.489Z,12.94
2022-10-28T03:48:36.225Z,12.94
2022-10-28T03:51:02.911Z,12.76
2022-10-28T03:53:31.475Z,12.84
2022-10-28T03:56:00.408Z,12.77
2022-10-28T03:58:27.354Z,12.70
2022-10-28T04:00:55.370Z,12.70
2022-10-28T04:03:23.350Z,12.86
2022-10-28T04:05:50.608Z,12.88
2022-10-28T04:08:18.338Z,12.93
2022-10-28T04:10:47.424Z,12.99
2022-10-28T04:13:15.533Z,13.17
2022-10-28T04:15:42.281Z,13.08
2022-10-28T04:18:08.974Z,12.78
2022-10-28T04:20:35.902Z,12.94
2022-10-28T04:23:02.876Z,13.06
2022-10-28T04:25:29.994Z,12.86
2022-10-28T04:27:56.907Z,12.84
2022-10-28T04:30:23.918Z,12.83
2022-10-28T04:32:50.592Z,12.86
2022-10-28T04:35:17.275Z,13.00
2022-10-28T04:37:43.966Z,13.00
2022-10-28T04:40:11.011Z,13.16
2022-10-28T04:42:37.686Z,13.23
2022-10-28T04:45:04.698Z,13.13
2022-10-28T04:47:31.381Z,13.02
2022-10-28T04:49:58.111Z,13.22
2022-10-28T04:52:24.769Z,13.17
2022-10-28T04:54:51.478Z,13.28
2022-10-28T04:57:18.148Z,13.26
2022-10-28T04:59:45.822Z,13.29
2022-10-28T05:02:12.665Z,13.38
2022-10-28T05:04:39.467Z,13.39
2022-10-28T05:07:06.878Z,13.43
2022-10-28T05:09:33.606Z,13.46
2022-10-28T05:12:00.245Z,13.40
2022-10-28T05:14:26.952Z,13.37
2022-10-28T05:16:53.597Z,13.25
2022-10-28T05:19:20.354Z,13.34
2022-10-28T05:21:47.044Z,13.40
2022-10-28T05:24:13.698Z,13.40
2022-10-28T05:26:40.360Z,13.26
2022-10-28T05:29:07.057Z,13.23
2022-10-28T05:31:33.726Z,13.34
2022-10-28T05:34:00.399Z,13.28
2022-10-28T05:36:27.022Z,13.08
2022-10-28T05:38:53.639Z,13.33
2022-10-28T05:41:21.983Z,13.28
2022-10-28T05:43:51.259Z,13.12
2022-10-28T05:46:17.926Z,13.23
2022-10-28T05:48:44.545Z,13.29
2022-10-28T05:51:11.245Z,13.38
2022-10-28T05:53:37.970Z,13.52
2022-10-28T05:56:04.819Z,13.52
2022-10-28T05:58:31.503Z,13.52
2022-10-28T06:00:58.279Z,13.27
2022-10-28T06:03:30.066Z,13.43
2022-10-28T06:05:58.592Z,13.23
2022-10-28T06:08:25.354Z,13.17
2022-10-28T06:10:54.633Z,13.20
2022-10-28T06:13:21.564Z,13.20
2022-10-28T06:15:55.801Z,13.14
2022-10-28T06:18:22.985Z,13.09
2022-10-28T06:20:54.269Z,13.06
2022-10-28T06:23:22.010Z,13.04
2022-10-28T06:25:49.007Z,12.99
2022-10-28T06:28:15.821Z,13.09
2022-10-28T06:30:42.574Z,12.95
2022-10-28T06:33:09.230Z,13.13
2022-10-28T06:35:35.876Z,13.18
2022-10-28T06:38:04.839Z,13.21
2022-10-28T06:40:36.341Z,13.32
2022-10-28T06:43:05.544Z,13.38
2022-10-28T06:45:33.489Z,13.43
2022-10-28T06:48:05.342Z,13.48
2022-10-28T06:50:33.494Z,13.53
2022-10-28T06:53:00.222Z,13.61
2022-10-28T06:55:27.313Z,13.69
2022-10-28T06:57:54.654Z,13.75
2022-10-28T07:00:21.750Z,13.86
2022-10-28T07:02:53.431Z,13.72
2022-10-28T07:05:21.080Z,13.82
2022-10-28T07:07:47.785Z,14.03
2022-10-28T07:10:14.604Z,13.91
2022-10-28T07:12:41.418Z,13.83
2022-10-28T07:15:09.545Z,14.12
2022-10-28T07:17:36.299Z,14.16
2022-10-28T07:20:03.044Z,14.24
2022-10-28T07:22:29.801Z,14.32
2022-10-28T07:24:56.473Z,14.43
2022-10-28T07:27:23.160Z,14.58
2022-10-28T07:29:49.849Z,14.62
2022-10-28T07:32:16.517Z,15.04
2022-10-28T07:34:43.223Z,15.10
2022-10-28T07:37:12.740Z,15.14
2022-10-28T07:39:39.578Z,15.13
2022-10-28T07:42:06.358Z,14.85
2022-10-28T07:44:33.078Z,15.03
2022-10-28T07:46:59.796Z,15.13
2022-10-28T07:49:26.544Z,15.21
2022-10-28T07:51:53.333Z,15.04
2022-10-28T07:54:20.104Z,15.01
2022-10-28T07:56:46.820Z,15.02
2022-10-28T07:59:13.590Z,15.16
2022-10-28T08:01:40.284Z,15.38
2022-10-28T08:04:07.130Z,15.52
2022-10-28T08:06:34.696Z,15.66
2022-10-28T08:09:01.788Z,15.57
2022-10-28T08:11:28.530Z,15.25
2022-10-28T08:13:56.424Z,15.31
2022-10-28T08:16:23.512Z,15.30
2022-10-28T08:18:50.489Z,15.36
2022-10-28T08:21:17.330Z,15.41
2022-10-28T08:23:46.830Z,15.37
2022-10-28T08:26:15.558Z,15.58
2022-10-28T08:28:43.004Z,15.45
2022-10-28T08:31:12.244Z,15.26
2022-10-28T08:33:44.273Z,15.42
2022-10-28T08:36:16.055Z,15.50
2022-10-28T08:38:45.802Z,15.46
2022-10-28T08:41:37.204Z,15.68
2022-10-28T08:44:25.518Z,15.85
2022-10-28T08:47:23.829Z,16.00
2022-10-28T08:49:56.224Z,16.08
2022-10-28T08:52:43.429Z,15.78
2022-10-28T08:55:16.066Z,15.88
2022-10-28T08:57:53.816Z,15.84
2022-10-28T09:00:30.549Z,16.06
2022-10-28T09:03:12.505Z,16.29
2022-10-28T09:05:41.266Z,16.26
2022-10-28T09:08:28.722Z,16.39
2022-10-28T09:11:10.365Z,16.83
2022-10-28T09:13:55.115Z,17.03
2022-10-28T09:16:24.483Z,17.32
2022-10-28T09:18:57.526Z,17.25
2022-10-28T09:21:33.963Z,17.61
2022-10-28T09:24:14.132Z,17.72
2022-10-28T09:26:58.253Z,17.76
2022-10-28T09:29:44.512Z,17.88
2022-10-28T09:32:22.653Z,18.05
2022-10-28T09:35:02.532Z,18.02
2022-10-28T09:37:31.546Z,18.23
2022-10-28T09:40:18.170Z,18.28
2022-10-28T09:42:53.550Z,18.14
2022-10-28T09:45:26.621Z,18.19
2022-10-28T09:48:01.375Z,18.20
2022-10-28T09:50:31.252Z,18.03
2022-10-28T09:53:16.722Z,18.03
2022-10-28T09:55:43.775Z,17.76
2022-10-28T09:58:12.869Z,17.61
2022-10-28T10:00:39.922Z,17.58
2022-10-28T10:03:06.830Z,17.42
2022-10-28T10:05:49.163Z,17.53
2022-10-28T10:08:19.047Z,17.63
2022-10-28T10:10:48.863Z,17.75
2022-10-28T10:13:19.868Z,17.84
2022-10-28T10:15:54.768Z,17.76
2022-10-28T10:18:33.028Z,18.07
2022-10-28T10:21:00.675Z,17.98
2022-10-28T10:23:41.136Z,17.87
2022-10-28T10:26:16.657Z,17.86
2022-10-28T10:28:44.635Z,17.97
2022-10-28T10:31:27.309Z,18.23
2022-10-28T10:33:56.685Z,18.40
2022-10-28T10:36:28.685Z,18.28
2022-10-28T10:38:57.365Z,18.53
2022-10-28T10:41:36.605Z,18.61
2022-10-28T10:44:21.448Z,18.99
2022-10-28T10:46:48.170Z,19.32
2022-10-28T10:49:15.645Z,19.48
2022-10-28T10:51:53.103Z,19.55
2022-10-28T10:54:20.912Z,19.57
2022-10-28T10:56:47.711Z,19.59
2022-10-28T10:59:29.708Z,19.53
2022-10-28T11:01:58.758Z,19.54
2022-10-28T11:04:28.249Z,19.43
2022-10-28T11:06:57.166Z,19.31
2022-10-28T11:09:26.796Z,19.29
2022-10-28T11:11:55.804Z,19.28
2022-10-28T11:14:31.371Z,19.43
2022-10-28T11:17:03.090Z,19.57
2022-10-28T11:19:30.971Z,19.76
2022-10-28T11:22:41.110Z,19.98
2022-10-28T11:25:37.213Z,20.16
2022-10-28T11:28:18.893Z,21.12
2022-10-28T11:31:11.501Z,21.72
2022-10-28T11:33:38.484Z,21.67
2022-10-28T11:36:28.383Z,21.59
2022-10-28T11:39:07.996Z,22.02
2022-10-28T11:41:53.475Z,22.33
2022-10-28T11:44:35.078Z,22.44
2022-10-28T11:47:16.367Z,22.89
2022-10-28T11:50:09.909Z,23.39
2022-10-28T11:52:48.413Z,23.83
2022-10-28T11:55:39.696Z,23.82
2022-10-28T11:58:45.069Z,23.54
2022-10-28T12:01:50.578Z,23.49
2022-10-28T12:04:19.220Z,23.60
2022-10-28T12:07:04.572Z,23.71
2022-10-28T12:09:48.405Z,23.51
2022-10-28T12:12:20.762Z,23.46
2022-10-28T12:15:04.027Z,22.87
2022-10-28T12:18:03.905Z,22.65
2022-10-28T12:20:42.316Z,23.06
2022-10-28T12:23:14.172Z,23.23
2022-10-28T12:25:43.793Z,23.06
2022-10-28T12:28:21.533Z,23.06
2022-10-28T12:30:51.309Z,23.67
2022-10-28T12:33:27.344Z,23.71
2022-10-28T12:36:08.991Z,23.73
2022-10-28T12:39:00.316Z,23.74
2022-10-28T12:41:43.956Z,23.97
2022-10-28T12:44:16.269Z,24.40
2022-10-28T12:47:17.288Z,24.77
2022-10-28T12:50:05.503Z,24.56
2022-10-28T12:53:02.201Z,24.65
2022-10-28T12:55:42.530Z,24.77
2022-10-28T12:58:15.498Z,24.82
2022-10-28T13:00:49.110Z,24.75
2022-10-28T13:03:16.319Z,24.99
2022-10-28T13:05:52.380Z,24.91
2022-10-28T13:08:32.823Z,25.01
2022-10-28T13:11:21.217Z,25.21
2022-10-28T13:14:06.395Z,25.45
2022-10-28T13:16:35.933Z,25.53
2022-10-28T13:19:40.958Z,25.85
2022-10-28T13:22:32.623Z,25.91
2022-10-28T13:25:21.966Z,25.88
2022-10-28T13:27:56.195Z,25.58
2022-10-28T13:30:23.541Z,25.26
2022-10-28T13:33:18.105Z,25.02
2022-10-28T13:35:47.063Z,24.84
2022-10-28T13:38:22.928Z,24.51
2022-10-28T13:43:48.914Z,24.53
2022-10-28T13:46:52.975Z,24.31
2022-10-28T13:49:24.387Z,24.33
2022-10-28T13:51:59.189Z,24.32
2022-10-28T13:54:30.433Z,24.59
2022-10-28T13:57:05.768Z,24.51
2022-10-28T13:59:49.830Z,24.35
2022-10-28T14:02:38.646Z,24.24
2022-10-28T14:05:09.564Z,23.97
2022-10-28T14:07:56.745Z,23.77
2022-10-28T14:10:32.604Z,23.71
2022-10-28T14:13:06.571Z,23.66
2022-10-28T14:15:38.330Z,23.61
2022-10-28T14:18:43.030Z,23.57
2022-10-28T14:21:04.307Z,23.51
2022-10-28T14:23:33.762Z,23.48
2022-10-28T14:26:05.476Z,23.38
2022-10-28T14:28:32.269Z,23.35
2022-10-28T14:31:08.198Z,23.30
2022-10-28T14:33:36.366Z,23.28
2022-10-28T14:36:18.033Z,23.24
2022-10-28T14:38:53.688Z,23.25
2022-10-28T14:42:08.540Z,23.26
2022-10-28T14:44:49.624Z,23.21
2022-10-28T14:47:48.692Z,23.18
2022-10-28T14:50:39.335Z,23.19
2022-10-28T14:53:13.035Z,23.15
2022-10-28T14:55:40.237Z,23.05
2022-10-28T14:58:24.374Z,22.96
2022-10-28T15:01:18.779Z,22.89
2022-10-28T15:03:59.123Z,22.88
2022-10-28T15:06:27.167Z,22.85
2022-10-28T15:08:54.929Z,22.76
2022-10-28T15:11:22.486Z,22.79
2022-10-28T15:13:52.583Z,22.73
2022-10-28T15:16:24.273Z,22.51
2022-10-28T15:18:53.888Z,22.50
2022-10-28T15:21:22.441Z,22.45
2022-10-28T15:24:02.412Z,22.34
2022-10-28T15:26:29.439Z,22.10
2022-10-28T15:28:56.244Z,21.92
2022-10-28T15:31:22.969Z,21.79
2022-10-28T15:33:49.852Z,21.55
2022-10-28T15:36:20.594Z,21.45
2022-10-28T15:39:14.524Z,21.30
2022-10-28T15:41:43.689Z,21.34
2022-10-28T15:44:36.857Z,21.26
2022-10-28T15:47:18.554Z,21.15
2022-10-28T15:49:58.659Z,21.06
2022-10-28T15:52:53.680Z,20.93
2022-10-28T15:55:41.167Z,20.76
2022-10-28T15:58:18.953Z,20.57
2022-10-28T16:00:57.756Z,20.37
2022-10-28T16:03:27.384Z,20.22
2022-10-28T16:05:56.785Z,20.09
2022-10-28T16:08:31.744Z,19.96
2022-10-28T16:11:06.457Z,19.87
2022-10-28T16:13:35.043Z,19.76
2022-10-28T16:16:06.484Z,19.46
2022-10-28T16:18:40.074Z,19.28
2022-10-28T16:21:07.450Z,19.33
2022-10-28T16:23:38.833Z,19.28
2022-10-28T16:26:05.762Z,19.04
2022-10-28T16:28:32.650Z,19.10
2022-10-28T16:31:00.920Z,18.85
2022-10-28T16:33:37.048Z,18.87
2022-10-28T16:36:04.073Z,18.78
2022-10-28T16:38:31.774Z,18.68
2022-10-28T16:41:02.461Z,18.40
2022-10-28T16:43:30.509Z,18.47
2022-10-28T16:45:59.531Z,18.38
2022-10-28T16:48:29.319Z,18.24
2022-10-28T16:51:00.612Z,18.15
2022-10-28T16:53:28.144Z,18.05
2022-10-28T16:55:59.182Z,17.93
2022-10-28T16:58:27.906Z,17.86
2022-10-28T17:00:55.505Z,17.72
2022-10-28T17:03:22.372Z,17.58
2022-10-28T17:05:49.748Z,17.46
2022-10-28T17:08:22.759Z,17.29
2022-10-28T17:11:04.705Z,17.31
2022-10-28T17:13:31.544Z,17.35
2022-10-28T17:15:58.177Z,17.31
2022-10-28T17:18:25.025Z,17.11
2022-10-28T17:21:01.889Z,17.27
2022-10-28T17:23:29.832Z,17.12
2022-10-28T17:26:02.683Z,17.14
2022-10-28T17:28:29.488Z,17.08
2022-10-28T17:31:07.009Z,17.05
2022-10-28T17:33:34.024Z,16.98
2022-10-28T17:36:06.437Z,16.94
2022-10-28T17:38:33.196Z,16.86
2022-10-28T17:41:00.274Z,16.62
2022-10-28T17:43:27.063Z,16.74
2022-10-28T17:46:03.691Z,16.66
2022-10-28T17:48:30.590Z,16.59
2022-10-28T17:50:57.486Z,16.52
2022-10-28T17:53:24.318Z,16.45
2022-10-28T17:55:58.814Z,16.36
2022-10-28T17:58:25.671Z,16.25
2022-10-28T18:01:00.976Z,16.24
2022-10-28T18:03:28.394Z,16.01
2022-10-28T18:05:55.695Z,16.23
2022-10-28T18:08:23.474Z,16.13
2022-10-28T18:10:51.972Z,16.12
2022-10-28T18:13:18.972Z,16.14
2022-10-28T18:15:46.900Z,16.08
2022-10-28T18:18:14.537Z,16.10
2022-10-28T18:20:41.278Z,16.08
2022-10-28T18:23:08.070Z,16.07
2022-10-28T18:25:34.889Z,16.01
2022-10-28T18:28:04.529Z,15.96
2022-10-28T18:30:32.144Z,15.80
2022-10-28T18:32:58.827Z,15.89
2022-10-28T18:35:25.584Z,15.90
2022-10-28T18:37:53.038Z,15.85
2022-10-28T18:40:20.020Z,15.67
2022-10-28T18:42:46.710Z,15.72
2022-10-28T18:45:13.702Z,15.46
2022-10-28T18:47:40.507Z,15.59
2022-10-28T18:50:07.627Z,15.43
2022-10-28T18:52:34.332Z,15.59
2022-10-28T18:55:01.016Z,15.50
2022-10-28T18:57:27.849Z,15.55
2022-10-28T19:02:47.268Z,15.48
2022-10-28T19:05:14.953Z,15.63
2022-10-28T19:07:41.725Z,15.72
2022-10-28T19:10:08.943Z,15.72
2022-10-28T19:12:40.778Z,15.69
2022-10-28T19:15:11.164Z,15.41
2022-10-28T19:17:37.876Z,15.63
2022-10-28T19:20:04.902Z,15.62
2022-10-28T19:22:31.664Z,15.59
2022-10-28T19:24:59.820Z,15.59
2022-10-28T19:27:26.655Z,15.51
2022-10-28T19:29:53.492Z,15.45
2022-10-28T19:32:20.189Z,15.45
2022-10-28T19:34:46.968Z,15.43
2022-10-28T19:37:14.088Z,15.39
2022-10-28T19:39:41.124Z,15.36
2022-10-28T19:42:08.016Z,15.17
2022-10-28T19:44:34.761Z,15.24
2022-10-28T19:47:01.433Z,15.30
2022-10-28T19:49:35.576Z,15.29
2022-10-28T19:52:04.176Z,15.27
2022-10-28T19:54:30.984Z,15.31
2022-10-28T19:56:58.857Z,15.07
2022-10-28T19:59:25.630Z,15.04
2022-10-28T20:01:52.408Z,14.96
2022-10-28T20:04:21.463Z,15.19
2022-10-28T20:06:48.397Z,14.96
2022-10-28T20:09:15.131Z,14.97
2022-10-28T20:11:42.079Z,15.07
2022-10-28T20:14:12.538Z,14.97
2022-10-28T20:16:42.863Z,14.92
2022-10-28T20:19:09.981Z,14.87
2022-10-28T20:21:38.094Z,14.81
2022-10-28T20:24:06.699Z,14.62
2022-10-28T20:26:36.039Z,14.74
2022-10-28T20:29:03.166Z,14.52
2022-10-28T20:31:31.787Z,14.69
2022-10-28T20:34:03.412Z,14.62
2022-10-28T20:36:35.900Z,14.72
2022-10-28T20:39:05.984Z,14.71
2022-10-28T20:41:35.044Z,14.70
2022-10-28T20:44:02.640Z,14.70
2022-10-28T20:46:29.972Z,14.65
2022-10-28T20:48:57.280Z,14.53
2022-10-28T20:51:26.111Z,14.53
2022-10-28T20:53:53.143Z,14.48
2022-10-28T20:56:34.039Z,14.51
2022-10-28T20:59:00.898Z,14.34
2022-10-28T21:01:32.439Z,14.45
2022-10-28T21:04:02.118Z,14.46
2022-10-28T21:06:29.809Z,14.39
2022-10-28T21:08:57.878Z,14.35
2022-10-28T21:11:25.892Z,14.29
2022-10-28T21:13:55.115Z,14.18
2022-10-28T21:16:23.085Z,14.21
2022-10-28T21:18:50.505Z,14.15
2022-10-28T21:21:19.121Z,14.10
2022-10-28T21:23:46.010Z,14.00
2022-10-28T21:26:13.359Z,13.86
2022-10-28T21:28:41.462Z,13.92
2022-10-28T21:31:11.840Z,13.93
2022-10-28T21:33:39.517Z,13.80
2022-10-28T21:36:09.410Z,13.88
2022-10-28T21:38:37.178Z,13.79
2022-10-28T21:41:05.396Z,13.81
2022-10-28T21:43:35.369Z,13.80
2022-10-28T21:46:02.698Z,13.71
2022-10-28T21:48:29.835Z,13.77
2022-10-28T21:50:58.252Z,13.77
2022-10-28T21:53:26.308Z,13.51
2022-10-28T21:55:55.494Z,13.68
2022-10-28T21:58:22.301Z,13.65
2022-10-28T22:00:49.057Z,13.62
2022-10-28T22:03:15.697Z,13.38
2022-10-28T22:05:49.627Z,13.42
2022-10-28T22:08:17.746Z,13.57
2022-10-28T22:10:44.434Z,13.55
2022-10-28T22:13:11.136Z,13.54
2022-10-28T22:15:37.783Z,13.47
2022-10-28T22:18:04.545Z,13.43
2022-10-28T22:20:31.251Z,13.34
2022-10-28T22:22:58.172Z,13.42
2022-10-28T22:25:25.270Z,13.32
2022-10-28T22:27:52.029Z,13.24
2022-10-28T22:30:18.701Z,13.38
2022-10-28T22:32:45.387Z,13.26
2022-10-28T22:35:12.058Z,13.33
2022-10-28T22:37:38.746Z,13.31
2022-10-28T22:40:05.860Z,13.08
2022-10-28T22:42:32.473Z,13.23
2022-10-28T22:44:59.212Z,13.16
2022-10-28T22:47:25.890Z,13.18
2022-10-28T22:49:52.522Z,12.69
2022-10-28T22:52:19.191Z,13.22
2022-10-28T22:54:45.946Z,13.18
2022-10-28T22:57:12.641Z,13.13
2022-10-28T22:59:39.319Z,13.06
2022-10-28T23:02:06.116Z,12.98
2022-10-28T23:04:32.889Z,13.01
2022-10-28T23:06:59.543Z,12.91
2022-10-28T23:09:26.195Z,12.79
2022-10-28T23:11:52.858Z,12.68
2022-10-28T23:14:19.477Z,12.74
2022-10-28T23:16:48.218Z,12.69
2022-10-28T23:19:14.903Z,12.76
2022-10-28T23:21:41.571Z,12.75
2022-10-28T23:24:08.526Z,12.73
2022-10-28T23:26:35.783Z,12.73
2022-10-28T23:29:02.514Z,12.82
2022-10-28T23:31:29.271Z,12.80
2022-10-28T23:33:56.436Z,12.76
2022-10-28T23:36:23.207Z,12.72
2022-10-28T23:38:49.918Z,12.69
2022-10-28T23:41:18.786Z,12.58
2022-10-28T23:43:46.854Z,12.71
2022-10-28T23:46:13.563Z,12.67
2022-10-28T23:48:40.268Z,12.61
2022-10-28T23:51:07.092Z,12.75
2022-10-28T23:53:34.563Z,12.71
2022-10-28T23:56:01.330Z,12.84
2022-10-28T23:58:28.063Z,12.85
